Ukiah Municipal Airport
KUKI : now visible

Airfield :











YOU CAN JOIN US ON...

 
LOGIN :

Register | Disclaimer

   EN    FR    IT 

 









Legend :    VFR   Marginal VFR   IFR   Intensive IFR   Very Intensive IFR
Visi :
Ceiling :
>= 8 km
>= 3000ft
5 to 8 km
1000 to 3000 ft
1500m to 5 km
500 to 1000 ft
800 to 1500m
200 to 500 ft
< 800m
< 200 ft
Symbols :   Thunderstorms  Fog  Heavy snow  Heavy precipitations  Wind > 20 kt






- Airport Elevation : 614 ft


KUKI - Ukiah Municipal

CURRENT METAR :
  • 161056Z AUTO 00000KT 10SM FEW002 01/01 A3034 RMK AO2 SLP274 T00110006

EXPIRED METARs :
  • 161035Z AUTO 00000KT 1 1/4SM BR SCT002 01/01 A3033 RMK AO2 T00110006
  • 161020Z AUTO 00000KT 3/4SM BR VV002 01/01 A3033 RMK AO2 T00110011
  • 161001Z AUTO 00000KT 3SM BR FEW001 02/01 A3032 RMK AO2 T00220011
  • 160956Z AUTO 00000KT 1 3/4SM BR FEW001 02/02 A3032 RMK AO2 SLP268 T00220017
  • 160929Z AUTO 00000KT 3SM BR FEW002 02/02 A3032 RMK AO2 T00220017
  • 160916Z AUTO 00000KT 1 1/2SM BR FEW002 03/02 A3032 RMK AO2 T00280017
  • 160905Z AUTO 00000KT 3SM BR FEW002 03/02 A3031 RMK AO2 T00280022
  • 160856Z AUTO 00000KT 3/4SM BR VV013 02/02 A3031 RMK AO2 SLP264 T00220017 58001

TAF KUKI
Valid from the 16 at 09:00 until the 17 at 06:00 UTC


160929Z 1609/1706 00000KT 3SM BR SCT002 SCT250
TEMPO 1609/1612 1SM BR BKN002
FM161400 00000KT 6SM BR FEW005 SCT250
FM162000 VRB04KT P6SM SCT150
FM170200 VRB03KT P6SM BKN250



MET'MAP, your aeronautical weather chart ! - Copyright ORBIFLY December 2007 - Disclaimer

ORBIFLY MET'MAP TEAM :

Programming & Development : Alexandra Zaïnal
Concept & original design : Baudouin d'Aumeries
Assistance for programming : Marc-Olivier Méhu
Technical & hardware support : Manuel Goepfert

Contact : metmap@orbifly.com




SOURCES & CREDITS :

   NOAA       Earth
Advisory